createdAt,value
2023-04-11T00:04:46.350Z,4.80
2023-04-11T00:09:50.653Z,4.47
2023-04-11T00:14:55.032Z,5.38
2023-04-11T00:19:57.815Z,5.40
2023-04-11T00:25:01.852Z,5.80
2023-04-11T00:30:05.964Z,5.28
2023-04-11T00:35:09.427Z,4.68
2023-04-11T00:40:15.967Z,6.38
2023-04-11T00:45:18.520Z,5.47
2023-04-11T00:50:22.337Z,6.45
2023-04-11T00:55:27.277Z,5.57
2023-04-11T01:00:30.127Z,5.47
2023-04-11T01:05:34.179Z,4.10
2023-04-11T01:10:42.702Z,5.72
2023-04-11T01:15:45.422Z,5.00
2023-04-11T01:20:48.017Z,4.30
2023-04-11T01:25:52.092Z,4.13
2023-04-11T01:30:54.804Z,3.85
2023-04-11T01:36:02.431Z,4.25
2023-04-11T01:41:07.478Z,5.20
2023-04-11T01:46:11.167Z,4.07
2023-04-11T01:51:13.751Z,5.60
2023-04-11T01:56:17.730Z,4.53
2023-04-11T02:01:22.530Z,3.85
2023-04-11T02:06:30.342Z,3.85
2023-04-11T02:11:34.327Z,4.45
2023-04-11T02:16:49.694Z,5.47
2023-04-11T02:21:52.546Z,4.40
2023-04-11T02:26:56.764Z,4.35
2023-04-11T02:32:01.695Z,5.68
2023-04-11T02:37:04.413Z,7.22
2023-04-11T02:42:08.374Z,5.60
2023-04-11T02:47:11.561Z,4.97
2023-04-11T02:52:14.363Z,5.80
2023-04-11T02:57:18.763Z,8.25
2023-04-11T03:02:23.305Z,7.85
2023-04-11T03:07:27.345Z,5.75
2023-04-11T03:12:31.510Z,7.97
2023-04-11T03:17:37.641Z,8.68
2023-04-11T03:22:41.262Z,7.85
2023-04-11T03:27:45.325Z,5.78
2023-04-11T03:32:48.637Z,4.88
2023-04-11T03:37:52.646Z,6.72
2023-04-11T03:42:56.776Z,4.70
2023-04-11T03:48:03.757Z,4.88
2023-04-11T03:53:20.683Z,6.55
2023-04-11T03:58:27.344Z,7.82
2023-04-11T04:03:31.073Z,5.65
2023-04-11T04:08:35.520Z,5.32
2023-04-11T04:13:39.761Z,4.45
2023-04-11T04:18:51.716Z,5.93
2023-04-11T04:23:57.928Z,5.05
2023-04-11T04:29:34.105Z,7.07
2023-04-11T04:34:41.505Z,5.50
2023-04-11T04:39:46.196Z,5.70
2023-04-11T04:44:58.963Z,5.05
2023-04-11T04:50:04.295Z,5.22
2023-04-11T04:55:08.142Z,5.18
2023-04-11T05:00:13.938Z,5.18
2023-04-11T05:05:19.457Z,3.72
2023-04-11T05:10:24.432Z,4.55
2023-04-11T05:15:28.684Z,4.95
2023-04-11T05:20:31.479Z,5.50
2023-04-11T05:25:34.383Z,5.65
2023-04-11T05:30:40.830Z,6.05
2023-04-11T05:35:44.056Z,5.00
2023-04-11T05:40:46.810Z,6.43
2023-04-11T05:45:51.272Z,4.47
2023-04-11T05:50:54.289Z,4.13
2023-04-11T05:55:56.930Z,4.25
2023-04-11T06:01:01.068Z,5.30
2023-04-11T06:06:03.816Z,4.90
2023-04-11T06:11:06.756Z,6.13
2023-04-11T06:16:11.091Z,4.75
2023-04-11T06:21:13.691Z,4.82
2023-04-11T06:26:21.402Z,4.10
2023-04-11T06:31:25.415Z,5.88
2023-04-11T06:36:28.214Z,4.82
2023-04-11T06:41:30.839Z,4.13
2023-04-11T06:46:34.860Z,4.50
2023-04-11T06:51:38.007Z,4.93
2023-04-11T06:56:40.795Z,4.55
2023-04-11T07:01:44.847Z,4.30
2023-04-11T07:06:47.953Z,7.88
2023-04-11T07:11:50.762Z,5.38
2023-04-11T07:16:55.004Z,4.22
2023-04-11T07:21:58.421Z,5.22
2023-04-11T07:27:01.884Z,5.32
2023-04-11T07:32:06.535Z,3.20
2023-04-11T07:37:09.273Z,4.90
2023-04-11T07:42:12.146Z,3.55
2023-04-11T07:47:16.636Z,4.15
2023-04-11T07:52:19.241Z,4.55
2023-04-11T07:57:21.863Z,3.05
2023-04-11T08:02:25.947Z,4.93
2023-04-11T08:07:28.742Z,2.90
2023-04-11T08:12:31.323Z,2.75
2023-04-11T08:17:38.123Z,2.95
2023-04-11T08:22:42.118Z,2.72
2023-04-11T08:27:44.699Z,3.53
2023-04-11T08:32:48.877Z,4.15
2023-04-11T08:37:51.833Z,1.05
2023-04-11T08:42:59.329Z,2.90
2023-04-11T08:48:03.426Z,4.65
2023-04-11T08:53:11.792Z,3.70
2023-04-11T08:58:15.392Z,2.92
2023-04-11T09:03:19.482Z,4.68
2023-04-11T09:08:22.205Z,3.03
2023-04-11T09:13:25.945Z,6.35
2023-04-11T09:18:36.923Z,2.70
2023-04-11T09:23:39.563Z,2.75
2023-04-11T09:28:43.154Z,3.33
2023-04-11T09:33:55.563Z,3.08
2023-04-11T09:44:02.632Z,5.05
2023-04-11T09:49:07.012Z,5.35
2023-04-11T09:54:12.013Z,7.82
2023-04-11T09:59:16.119Z,3.92
2023-04-11T10:04:20.800Z,7.13
2023-04-11T10:09:23.794Z,6.32
2023-04-11T10:14:59.820Z,2.30
2023-04-11T10:20:24.175Z,1.85
2023-04-11T10:25:27.459Z,1.15
2023-04-11T10:30:44.911Z,1.92
2023-04-11T10:35:58.956Z,1.80
2023-04-11T10:41:32.480Z,0.50
2023-04-11T10:46:44.532Z,0.63
2023-04-11T10:51:48.577Z,2.03
2023-04-11T10:56:57.680Z,2.95
2023-04-11T11:02:01.356Z,1.70
2023-04-11T11:07:06.305Z,1.80
2023-04-11T11:12:09.584Z,1.88
2023-04-11T11:17:12.580Z,5.00
2023-04-11T11:22:17.430Z,2.38
2023-04-11T11:27:20.584Z,2.60
2023-04-11T11:32:25.298Z,2.75
2023-04-11T11:37:29.698Z,1.67
2023-04-11T11:42:32.521Z,1.90
2023-04-11T11:47:42.261Z,3.15
2023-04-11T11:52:48.870Z,3.92
2023-04-11T11:57:51.960Z,2.80
2023-04-11T12:02:55.446Z,1.30
2023-04-11T12:08:04.382Z,2.00
2023-04-11T12:13:16.679Z,2.13
2023-04-11T12:18:21.200Z,3.83
2023-04-11T12:23:25.182Z,1.75
2023-04-11T12:28:27.774Z,5.13
2023-04-11T12:33:30.539Z,1.50
2023-04-11T12:38:34.723Z,2.42
2023-04-11T12:43:37.341Z,2.88
2023-04-11T12:48:39.908Z,2.08
2023-04-11T12:53:43.863Z,2.75
2023-04-11T12:58:46.504Z,3.72
2023-04-11T13:03:49.342Z,2.08
2023-04-11T13:08:53.654Z,3.45
2023-04-11T13:13:56.311Z,1.70
2023-04-11T13:18:58.966Z,4.28
2023-04-11T13:24:03.730Z,1.77
2023-04-11T13:29:06.683Z,2.20
2023-04-11T13:34:09.443Z,2.45
2023-04-11T13:39:14.208Z,3.33
2023-04-11T13:44:16.761Z,3.50
2023-04-11T13:49:19.399Z,3.60
2023-04-11T13:54:23.364Z,1.35
2023-04-11T13:59:26.038Z,3.05
2023-04-11T14:04:28.772Z,1.83
2023-04-11T14:09:33.187Z,3.15
2023-04-11T14:14:35.765Z,4.50
2023-04-11T14:19:38.317Z,5.88
2023-04-11T14:24:42.342Z,1.63
2023-04-11T14:29:44.913Z,3.30
2023-04-11T14:34:47.572Z,3.03
2023-04-11T14:39:51.509Z,2.25
2023-04-11T14:44:54.203Z,4.43
2023-04-11T14:49:57.370Z,3.05
2023-04-11T14:55:01.424Z,0.40
2023-04-11T15:00:06.476Z,1.45
2023-04-11T15:05:09.750Z,2.70
2023-04-11T15:10:14.497Z,3.42
2023-04-11T15:15:17.094Z,1.50
2023-04-11T15:20:20.085Z,3.35
2023-04-11T15:25:24.383Z,0.75
2023-04-11T15:30:27.256Z,1.17
2023-04-11T15:35:29.839Z,2.13
2023-04-11T15:40:34.059Z,1.35
2023-04-11T15:45:37.345Z,3.15
2023-04-11T15:50:40.627Z,2.53
2023-04-11T15:55:44.960Z,2.10
2023-04-11T16:00:47.733Z,1.58
2023-04-11T16:05:53.000Z,2.05
2023-04-11T16:10:57.096Z,1.92
2023-04-11T16:16:00.608Z,1.67
2023-04-11T16:21:03.586Z,1.92
2023-04-11T16:26:08.017Z,1.15
2023-04-11T16:31:10.792Z,1.13
2023-04-11T16:36:13.446Z,1.27
2023-04-11T16:41:17.688Z,1.63
2023-04-11T16:46:20.882Z,2.33
2023-04-11T16:51:23.521Z,1.70
2023-04-11T16:56:29.053Z,0.40
2023-04-11T17:01:32.425Z,1.42
2023-04-11T17:06:35.589Z,2.22
2023-04-11T17:11:40.134Z,2.80
2023-04-11T17:16:43.433Z,3.40
2023-04-11T17:21:46.183Z,3.65
2023-04-11T17:26:50.412Z,2.22
2023-04-11T17:31:53.076Z,3.00
2023-04-11T17:36:56.138Z,4.28
2023-04-11T17:42:00.229Z,2.83
2023-04-11T17:47:02.880Z,2.47
2023-04-11T17:52:05.460Z,1.60
2023-04-11T17:57:09.798Z,2.45
2023-04-11T18:02:13.078Z,3.17
2023-04-11T18:07:16.233Z,2.00
2023-04-11T18:12:20.611Z,1.63
2023-04-11T18:17:32.696Z,1.08
2023-04-11T18:22:35.950Z,2.30
2023-04-11T18:27:40.792Z,5.55
2023-04-11T18:32:48.903Z,2.38
2023-04-11T18:37:53.989Z,2.10
2023-04-11T18:42:58.495Z,2.45
2023-04-11T18:48:01.437Z,1.13
2023-04-11T18:53:06.104Z,3.95
2023-04-11T18:58:15.258Z,1.20
2023-04-11T19:03:19.506Z,1.67
2023-04-11T19:08:22.336Z,1.20
2023-04-11T19:13:26.607Z,2.63
2023-04-11T19:18:29.758Z,4.32
2023-04-11T19:23:32.402Z,2.38
2023-04-11T19:28:36.485Z,3.20
2023-04-11T19:33:40.005Z,1.67
2023-04-11T19:38:42.747Z,0.93
2023-04-11T19:43:47.544Z,3.13
2023-04-11T19:48:50.406Z,0.82
2023-04-11T19:53:53.242Z,2.75
2023-04-11T19:58:57.212Z,2.33
2023-04-11T20:04:01.034Z,4.93
2023-04-11T20:09:04.164Z,5.00
2023-04-11T20:14:08.123Z,3.47
2023-04-11T20:19:11.393Z,4.38
2023-04-11T20:24:15.447Z,2.30
2023-04-11T20:29:21.296Z,1.75
2023-04-11T20:34:23.969Z,1.67
2023-04-11T20:39:27.816Z,2.15
2023-04-11T20:44:34.059Z,1.35
2023-04-11T20:49:36.664Z,2.15
2023-04-11T20:54:40.922Z,2.70
2023-04-11T20:59:44.880Z,3.38
2023-04-11T21:04:48.686Z,2.83
2023-04-11T21:09:51.788Z,2.22
2023-04-11T21:14:55.822Z,4.32
2023-04-11T21:19:58.590Z,2.00
2023-04-11T21:25:02.545Z,2.40
2023-04-11T21:30:07.263Z,2.65
2023-04-11T21:35:10.782Z,1.85
2023-04-11T21:40:13.647Z,2.45
2023-04-11T21:45:17.754Z,2.33
2023-04-11T21:50:20.368Z,2.17
2023-04-11T21:55:23.114Z,2.65
2023-04-11T22:00:27.454Z,3.03
2023-04-11T22:05:30.260Z,2.70
2023-04-11T22:10:46.629Z,2.42
2023-04-11T22:15:58.592Z,1.63
2023-04-11T22:21:03.127Z,2.10
2023-04-11T22:26:06.314Z,2.30
2023-04-11T22:31:13.533Z,2.25
2023-04-11T22:36:16.322Z,3.05
2023-04-11T22:41:19.117Z,3.67
2023-04-11T22:46:23.025Z,2.50
2023-04-11T22:51:30.162Z,2.28
2023-04-11T22:56:32.792Z,4.88
2023-04-11T23:01:36.823Z,3.38
2023-04-11T23:06:39.469Z,2.97
2023-04-11T23:11:42.108Z,3.50
2023-04-11T23:16:46.021Z,2.47
2023-04-11T23:21:48.964Z,3.83
2023-04-11T23:26:51.557Z,2.25
2023-04-11T23:31:55.791Z,2.53
2023-04-11T23:36:58.612Z,1.90
2023-04-11T23:42:01.173Z,3.10
2023-04-11T23:47:05.061Z,1.52
2023-04-11T23:52:07.727Z,2.00
2023-04-11T23:57:10.490Z,2.30
